createdAt,value
2022-10-04T00:03:42.352Z,98818.48
2022-10-04T00:14:16.499Z,98811.74
2022-10-04T00:25:23.359Z,98818.05
2022-10-04T00:35:52.538Z,98813.52
2022-10-04T00:46:25.600Z,98807.70
2022-10-04T00:56:56.621Z,98805.31
2022-10-04T01:07:29.108Z,98796.14
2022-10-04T01:18:29.877Z,98790.57
2022-10-04T01:29:01.029Z,98792.56
2022-10-04T01:39:30.298Z,98790.58
2022-10-04T01:50:02.989Z,98793.20
2022-10-04T02:00:32.115Z,98781.21
2022-10-04T02:11:01.853Z,98785.88
2022-10-04T02:21:30.162Z,98785.40
2022-10-04T02:32:15.765Z,98784.73
2022-10-04T02:42:48.547Z,98787.52
2022-10-04T02:53:27.034Z,98778.40
2022-10-04T03:03:56.977Z,98777.55
2022-10-04T03:14:29.531Z,98774.20
2022-10-04T03:24:59.338Z,98784.45
2022-10-04T03:35:34.403Z,98788.95
2022-10-04T03:46:03.551Z,98787.86
2022-10-04T03:56:35.363Z,98785.12
2022-10-04T04:07:07.865Z,98789.05
2022-10-04T04:17:44.033Z,98800.84
2022-10-04T04:28:22.573Z,98802.91
2022-10-04T04:39:07.802Z,98807.51
2022-10-04T04:49:39.949Z,98818.33
2022-10-04T05:00:17.342Z,98830.06
2022-10-04T05:10:51.040Z,98842.33
2022-10-04T05:21:25.310Z,98855.10
2022-10-04T05:32:03.522Z,98862.48
2022-10-04T05:42:39.168Z,98879.16
2022-10-04T05:53:20.996Z,98889.52
2022-10-04T06:04:05.127Z,98891.11
2022-10-04T06:15:09.529Z,98898.24
2022-10-04T06:25:43.514Z,98913.70
2022-10-04T06:36:31.797Z,98924.89
2022-10-04T06:47:10.665Z,98938.00
2022-10-04T06:58:00.569Z,98948.67
2022-10-04T07:08:38.776Z,98961.78
2022-10-04T07:19:29.388Z,98974.46
2022-10-04T07:29:59.376Z,98978.43
2022-10-04T07:40:36.194Z,98978.91
2022-10-04T07:51:14.185Z,98985.77
2022-10-04T08:01:48.850Z,98996.61
2022-10-04T08:12:24.655Z,99009.13
2022-10-04T08:23:03.131Z,99019.22
2022-10-04T08:33:49.854Z,99028.95
2022-10-04T08:44:52.442Z,99043.58
2022-10-04T08:55:37.410Z,99048.83
2022-10-04T09:06:34.797Z,99050.62
2022-10-04T09:17:22.267Z,99059.50
2022-10-04T09:28:15.516Z,99071.14
2022-10-04T09:39:28.888Z,99077.34
2022-10-04T09:50:27.618Z,99084.54
2022-10-04T10:01:09.106Z,99091.59
2022-10-04T10:12:04.090Z,99093.92
2022-10-04T10:22:57.757Z,99101.59
2022-10-04T10:34:02.120Z,99106.20
2022-10-04T10:45:04.721Z,99112.98
2022-10-04T10:56:08.743Z,99117.35
2022-10-04T11:07:05.086Z,99113.86
2022-10-04T11:17:50.249Z,99130.37
2022-10-04T11:28:27.761Z,99126.55
2022-10-04T11:39:13.615Z,99128.99
2022-10-04T11:49:56.845Z,99130.67
2022-10-04T12:00:27.229Z,99129.88
2022-10-04T12:11:25.688Z,99134.68
2022-10-04T12:22:05.723Z,99132.91
2022-10-04T12:32:40.951Z,99137.68
2022-10-04T12:43:15.035Z,99144.17
2022-10-04T12:53:57.873Z,99138.59
2022-10-04T13:04:36.266Z,99150.14
2022-10-04T13:15:21.185Z,99145.52
2022-10-04T13:26:06.162Z,99139.58
2022-10-04T13:36:54.404Z,99153.81
2022-10-04T13:47:55.597Z,99157.71
2022-10-04T13:58:36.111Z,99166.95
2022-10-04T14:09:42.244Z,99168.95
2022-10-04T14:21:00.995Z,99174.79
2022-10-04T14:31:57.658Z,99164.38
2022-10-04T14:43:00.183Z,99164.28
2022-10-04T14:53:35.321Z,99166.77
2022-10-04T15:04:28.335Z,99178.85
2022-10-04T15:15:29.410Z,99186.73
2022-10-04T15:26:03.244Z,99202.27
2022-10-04T15:36:49.414Z,99214.83
2022-10-04T15:47:26.933Z,99220.56
2022-10-04T15:58:24.238Z,99227.98
2022-10-04T16:09:15.039Z,99231.30
2022-10-04T16:19:59.337Z,99242.92
2022-10-04T16:30:31.219Z,99244.05
2022-10-04T16:41:29.194Z,99254.91
2022-10-04T16:52:27.577Z,99267.09
2022-10-04T17:03:09.214Z,99270.21
2022-10-04T17:13:50.810Z,99278.72
2022-10-04T17:24:34.816Z,99286.68
2022-10-04T17:35:17.170Z,99294.30
2022-10-04T17:46:18.878Z,99305.29
2022-10-04T17:56:50.686Z,99318.52
2022-10-04T18:07:22.591Z,99325.21
2022-10-04T18:17:51.958Z,99329.68
2022-10-04T18:28:27.241Z,99338.67
2022-10-04T18:39:24.737Z,99345.72
2022-10-04T18:50:03.259Z,99353.94
2022-10-04T19:00:57.123Z,99372.80
2022-10-04T19:11:40.477Z,99380.14
2022-10-04T19:22:22.360Z,99383.61
2022-10-04T19:33:04.796Z,99375.95
2022-10-04T19:43:48.446Z,99395.86
2022-10-04T19:54:21.064Z,99402.29
2022-10-04T20:04:50.220Z,99417.78
2022-10-04T20:15:43.491Z,99419.70
2022-10-04T20:26:32.374Z,99425.10
2022-10-04T20:37:00.488Z,99439.89
2022-10-04T20:47:40.958Z,99452.02
2022-10-04T20:58:32.415Z,99466.79
2022-10-04T21:09:00.553Z,99470.25
2022-10-04T21:19:48.192Z,99468.80
2022-10-04T21:30:19.714Z,99470.34
2022-10-04T21:40:47.939Z,99488.02
2022-10-04T21:51:16.177Z,99481.29
2022-10-04T22:01:44.140Z,99472.16
2022-10-04T22:12:12.078Z,99481.98
2022-10-04T22:22:40.158Z,99483.70
2022-10-04T22:33:35.591Z,99472.32
2022-10-04T22:44:13.486Z,99459.90
2022-10-04T22:54:44.843Z,99461.24
2022-10-04T23:05:18.524Z,99472.44
2022-10-04T23:15:46.694Z,99480.90
2022-10-04T23:26:21.130Z,99474.71
2022-10-04T23:36:49.980Z,99478.39
2022-10-04T23:47:20.933Z,99483.05
2022-10-04T23:57:49.393Z,99480.05
